sensor_id;sensor_type;location;lat;lon;timestamp;temperature;humidity
64198;SHT31;50512;53.666;9.700;2023-09-19T00:02:02;16.62;92.30
64198;SHT31;50512;53.666;9.700;2023-09-19T00:04:31;16.69;92.11
64198;SHT31;50512;53.666;9.700;2023-09-19T00:06:58;16.62;92.40
64198;SHT31;50512;53.666;9.700;2023-09-19T00:09:27;16.55;92.53
64198;SHT31;50512;53.666;9.700;2023-09-19T00:11:54;16.62;92.19
64198;SHT31;50512;53.666;9.700;2023-09-19T00:14:20;16.56;92.55
64198;SHT31;50512;53.666;9.700;2023-09-19T00:16:49;16.58;92.38
64198;SHT31;50512;53.666;9.700;2023-09-19T00:19:16;16.58;92.49
64198;SHT31;50512;53.666;9.700;2023-09-19T00:21:44;16.47;92.72
64198;SHT31;50512;53.666;9.700;2023-09-19T00:24:11;16.48;92.79
64198;SHT31;50512;53.666;9.700;2023-09-19T00:26:38;16.41;93.04
64198;SHT31;50512;53.666;9.700;2023-09-19T00:29:05;16.39;93.15
64198;SHT31;50512;53.666;9.700;2023-09-19T00:31:33;16.26;93.54
64198;SHT31;50512;53.666;9.700;2023-09-19T00:34:03;16.33;93.29
64198;SHT31;50512;53.666;9.700;2023-09-19T00:36:31;16.32;93.51
64198;SHT31;50512;53.666;9.700;2023-09-19T00:39:00;16.33;93.56
64198;SHT31;50512;53.666;9.700;2023-09-19T00:41:28;16.26;93.73
64198;SHT31;50512;53.666;9.700;2023-09-19T00:43:55;16.32;93.69
64198;SHT31;50512;53.666;9.700;2023-09-19T00:46:22;16.25;93.86
64198;SHT31;50512;53.666;9.700;2023-09-19T00:48:48;16.20;94.10
64198;SHT31;50512;53.666;9.700;2023-09-19T00:51:15;16.31;93.76
64198;SHT31;50512;53.666;9.700;2023-09-19T00:53:44;16.32;93.73
64198;SHT31;50512;53.666;9.700;2023-09-19T00:56:14;16.28;94.00
64198;SHT31;50512;53.666;9.700;2023-09-19T00:58:43;16.24;94.00
64198;SHT31;50512;53.666;9.700;2023-09-19T01:01:11;16.26;93.97
64198;SHT31;50512;53.666;9.700;2023-09-19T01:03:40;16.29;93.99
64198;SHT31;50512;53.666;9.700;2023-09-19T01:06:07;16.25;94.01
64198;SHT31;50512;53.666;9.700;2023-09-19T01:08:34;16.22;94.13
64198;SHT31;50512;53.666;9.700;2023-09-19T01:11:06;16.14;94.47
64198;SHT31;50512;53.666;9.700;2023-09-19T01:13:47;16.14;94.53
64198;SHT31;50512;53.666;9.700;2023-09-19T01:16:19;16.11;94.59
64198;SHT31;50512;53.666;9.700;2023-09-19T01:19:05;16.10;94.68
64198;SHT31;50512;53.666;9.700;2023-09-19T01:21:43;16.03;94.97
64198;SHT31;50512;53.666;9.700;2023-09-19T01:24:35;15.94;95.14
64198;SHT31;50512;53.666;9.700;2023-09-19T01:27:25;16.00;94.96
64198;SHT31;50512;53.666;9.700;2023-09-19T01:30:07;15.97;94.90
64198;SHT31;50512;53.666;9.700;2023-09-19T01:32:34;15.98;94.43
64198;SHT31;50512;53.666;9.700;2023-09-19T01:35:03;16.00;94.36
64198;SHT31;50512;53.666;9.700;2023-09-19T01:37:30;15.96;94.24
64198;SHT31;50512;53.666;9.700;2023-09-19T01:39:59;15.97;94.16
64198;SHT31;50512;53.666;9.700;2023-09-19T01:42:40;15.93;94.04
64198;SHT31;50512;53.666;9.700;2023-09-19T01:45:11;15.91;94.21
64198;SHT31;50512;53.666;9.700;2023-09-19T01:47:44;15.86;94.10
64198;SHT31;50512;53.666;9.700;2023-09-19T01:50:19;15.87;93.83
64198;SHT31;50512;53.666;9.700;2023-09-19T01:52:51;15.86;93.66
64198;SHT31;50512;53.666;9.700;2023-09-19T01:55:20;15.77;93.79
64198;SHT31;50512;53.666;9.700;2023-09-19T01:57:51;15.82;93.60
64198;SHT31;50512;53.666;9.700;2023-09-19T02:00:22;15.69;93.75
64198;SHT31;50512;53.666;9.700;2023-09-19T02:02:50;15.59;94.19
64198;SHT31;50512;53.666;9.700;2023-09-19T02:05:22;15.58;94.17
64198;SHT31;50512;53.666;9.700;2023-09-19T02:07:49;15.62;93.83
64198;SHT31;50512;53.666;9.700;2023-09-19T02:10:16;15.60;93.62
64198;SHT31;50512;53.666;9.700;2023-09-19T02:12:43;15.67;93.21
64198;SHT31;50512;53.666;9.700;2023-09-19T02:15:10;15.62;93.19
64198;SHT31;50512;53.666;9.700;2023-09-19T02:17:38;15.50;93.53
64198;SHT31;50512;53.666;9.700;2023-09-19T02:20:05;15.49;93.43
64198;SHT31;50512;53.666;9.700;2023-09-19T02:22:39;15.50;93.10
64198;SHT31;50512;53.666;9.700;2023-09-19T02:25:06;15.46;93.21
64198;SHT31;50512;53.666;9.700;2023-09-19T02:27:33;15.53;92.77
64198;SHT31;50512;53.666;9.700;2023-09-19T02:30:00;15.56;92.70
64198;SHT31;50512;53.666;9.700;2023-09-19T02:32:29;15.58;92.60
64198;SHT31;50512;53.666;9.700;2023-09-19T02:34:57;15.46;93.17
64198;SHT31;50512;53.666;9.700;2023-09-19T02:37:24;15.49;93.42
64198;SHT31;50512;53.666;9.700;2023-09-19T02:39:51;15.50;93.55
64198;SHT31;50512;53.666;9.700;2023-09-19T02:42:18;15.56;93.54
64198;SHT31;50512;53.666;9.700;2023-09-19T02:44:44;15.52;93.94
64198;SHT31;50512;53.666;9.700;2023-09-19T02:47:12;15.53;94.20
64198;SHT31;50512;53.666;9.700;2023-09-19T02:49:40;15.55;94.06
64198;SHT31;50512;53.666;9.700;2023-09-19T02:52:09;15.62;93.69
64198;SHT31;50512;53.666;9.700;2023-09-19T02:54:36;15.59;93.77
64198;SHT31;50512;53.666;9.700;2023-09-19T02:57:03;15.59;93.82
64198;SHT31;50512;53.666;9.700;2023-09-19T02:59:31;15.66;93.48
64198;SHT31;50512;53.666;9.700;2023-09-19T03:01:58;15.63;93.36
64198;SHT31;50512;53.666;9.700;2023-09-19T03:04:26;15.62;93.66
64198;SHT31;50512;53.666;9.700;2023-09-19T03:06:52;15.60;93.19
64198;SHT31;50512;53.666;9.700;2023-09-19T03:09:25;15.66;92.95
64198;SHT31;50512;53.666;9.700;2023-09-19T03:11:51;15.67;92.98
64198;SHT31;50512;53.666;9.700;2023-09-19T03:14:19;15.65;92.78
64198;SHT31;50512;53.666;9.700;2023-09-19T03:16:46;15.65;92.76
64198;SHT31;50512;53.666;9.700;2023-09-19T03:19:12;15.62;92.83
64198;SHT31;50512;53.666;9.700;2023-09-19T03:21:40;15.55;92.72
64198;SHT31;50512;53.666;9.700;2023-09-19T03:24:07;15.43;93.01
64198;SHT31;50512;53.666;9.700;2023-09-19T03:26:35;15.43;92.76
64198;SHT31;50512;53.666;9.700;2023-09-19T03:29:03;15.43;92.50
64198;SHT31;50512;53.666;9.700;2023-09-19T03:31:33;15.43;92.45
64198;SHT31;50512;53.666;9.700;2023-09-19T03:34:02;15.42;92.44
64198;SHT31;50512;53.666;9.700;2023-09-19T03:36:29;15.36;92.62
64198;SHT31;50512;53.666;9.700;2023-09-19T03:38:55;15.32;92.63
64198;SHT31;50512;53.666;9.700;2023-09-19T03:41:22;15.29;92.64
64198;SHT31;50512;53.666;9.700;2023-09-19T03:43:50;15.28;92.45
64198;SHT31;50512;53.666;9.700;2023-09-19T03:46:16;15.29;92.12
64198;SHT31;50512;53.666;9.700;2023-09-19T03:48:43;15.34;91.35
64198;SHT31;50512;53.666;9.700;2023-09-19T03:51:09;15.42;89.14
64198;SHT31;50512;53.666;9.700;2023-09-19T03:53:36;15.36;89.89
64198;SHT31;50512;53.666;9.700;2023-09-19T03:56:02;15.32;89.54
64198;SHT31;50512;53.666;9.700;2023-09-19T03:58:28;15.32;89.61
64198;SHT31;50512;53.666;9.700;2023-09-19T04:00:57;15.34;89.45
64198;SHT31;50512;53.666;9.700;2023-09-19T04:03:24;15.40;89.06
64198;SHT31;50512;53.666;9.700;2023-09-19T04:05:59;15.35;89.86
64198;SHT31;50512;53.666;9.700;2023-09-19T04:08:26;15.39;90.23
64198;SHT31;50512;53.666;9.700;2023-09-19T04:10:52;15.32;90.24
64198;SHT31;50512;53.666;9.700;2023-09-19T04:13:19;15.20;90.53
64198;SHT31;50512;53.666;9.700;2023-09-19T04:15:47;15.15;90.78
64198;SHT31;50512;53.666;9.700;2023-09-19T04:18:14;15.08;90.64
64198;SHT31;50512;53.666;9.700;2023-09-19T04:20:41;15.00;90.39
64198;SHT31;50512;53.666;9.700;2023-09-19T04:23:07;14.91;90.27
64198;SHT31;50512;53.666;9.700;2023-09-19T04:25:34;14.86;89.69
64198;SHT31;50512;53.666;9.700;2023-09-19T04:28:00;14.70;90.36
64198;SHT31;50512;53.666;9.700;2023-09-19T04:30:29;14.60;90.32
64198;SHT31;50512;53.666;9.700;2023-09-19T04:32:56;14.63;89.99
64198;SHT31;50512;53.666;9.700;2023-09-19T04:35:23;14.56;90.24
64198;SHT31;50512;53.666;9.700;2023-09-19T04:37:50;14.43;90.61
64198;SHT31;50512;53.666;9.700;2023-09-19T04:40:18;14.48;90.17
64198;SHT31;50512;53.666;9.700;2023-09-19T04:42:44;14.53;89.80
64198;SHT31;50512;53.666;9.700;2023-09-19T04:45:12;14.40;90.52
64198;SHT31;50512;53.666;9.700;2023-09-19T04:47:38;14.33;90.66
64198;SHT31;50512;53.666;9.700;2023-09-19T04:50:08;14.28;91.04
64198;SHT31;50512;53.666;9.700;2023-09-19T04:52:40;14.15;91.43
64198;SHT31;50512;53.666;9.700;2023-09-19T04:55:09;14.17;91.03
64198;SHT31;50512;53.666;9.700;2023-09-19T04:57:39;14.18;90.88
64198;SHT31;50512;53.666;9.700;2023-09-19T05:00:06;14.15;91.06
64198;SHT31;50512;53.666;9.700;2023-09-19T05:02:37;14.07;91.28
64198;SHT31;50512;53.666;9.700;2023-09-19T05:05:04;14.11;90.85
64198;SHT31;50512;53.666;9.700;2023-09-19T05:07:31;14.15;90.74
64198;SHT31;50512;53.666;9.700;2023-09-19T05:10:00;14.10;90.87
64198;SHT31;50512;53.666;9.700;2023-09-19T05:12:31;14.08;90.97
64198;SHT31;50512;53.666;9.700;2023-09-19T05:14:57;13.93;91.39
64198;SHT31;50512;53.666;9.700;2023-09-19T05:17:23;13.97;91.04
64198;SHT31;50512;53.666;9.700;2023-09-19T05:19:50;13.95;91.18
64198;SHT31;50512;53.666;9.700;2023-09-19T05:22:17;13.95;91.18
64198;SHT31;50512;53.666;9.700;2023-09-19T05:24:43;13.91;91.33
64198;SHT31;50512;53.666;9.700;2023-09-19T05:27:14;13.90;91.30
64198;SHT31;50512;53.666;9.700;2023-09-19T05:29:42;13.85;91.33
64198;SHT31;50512;53.666;9.700;2023-09-19T05:32:08;13.98;90.95
64198;SHT31;50512;53.666;9.700;2023-09-19T05:34:35;13.98;90.79
64198;SHT31;50512;53.666;9.700;2023-09-19T05:37:02;13.95;91.02
64198;SHT31;50512;53.666;9.700;2023-09-19T05:39:30;13.91;91.04
64198;SHT31;50512;53.666;9.700;2023-09-19T05:41:57;14.02;90.48
64198;SHT31;50512;53.666;9.700;2023-09-19T05:44:24;14.08;90.24
64198;SHT31;50512;53.666;9.700;2023-09-19T05:46:51;14.04;90.50
64198;SHT31;50512;53.666;9.700;2023-09-19T05:49:17;14.08;90.40
64198;SHT31;50512;53.666;9.700;2023-09-19T05:51:46;14.04;90.48
64198;SHT31;50512;53.666;9.700;2023-09-19T05:54:13;14.17;89.98
64198;SHT31;50512;53.666;9.700;2023-09-19T05:56:40;14.26;89.73
64198;SHT31;50512;53.666;9.700;2023-09-19T05:59:07;14.33;89.93
64198;SHT31;50512;53.666;9.700;2023-09-19T06:01:35;14.43;89.27
64198;SHT31;50512;53.666;9.700;2023-09-19T06:04:02;14.53;89.54
64198;SHT31;50512;53.666;9.700;2023-09-19T06:06:29;14.60;88.96
64198;SHT31;50512;53.666;9.700;2023-09-19T06:08:56;14.66;88.64
64198;SHT31;50512;53.666;9.700;2023-09-19T06:11:22;14.72;88.74
64198;SHT31;50512;53.666;9.700;2023-09-19T06:13:51;14.67;88.63
64198;SHT31;50512;53.666;9.700;2023-09-19T06:16:18;14.84;88.48
64198;SHT31;50512;53.666;9.700;2023-09-19T06:18:46;14.80;87.51
64198;SHT31;50512;53.666;9.700;2023-09-19T06:21:18;14.63;88.27
64198;SHT31;50512;53.666;9.700;2023-09-19T06:23:44;14.67;88.83
64198;SHT31;50512;53.666;9.700;2023-09-19T06:26:10;14.69;87.57
64198;SHT31;50512;53.666;9.700;2023-09-19T06:28:38;14.67;88.31
64198;SHT31;50512;53.666;9.700;2023-09-19T06:31:04;14.70;87.61
64198;SHT31;50512;53.666;9.700;2023-09-19T06:33:35;14.72;87.55
64198;SHT31;50512;53.666;9.700;2023-09-19T06:36:05;14.70;88.17
64198;SHT31;50512;53.666;9.700;2023-09-19T06:38:31;14.73;88.04
64198;SHT31;50512;53.666;9.700;2023-09-19T06:41:00;14.74;87.63
64198;SHT31;50512;53.666;9.700;2023-09-19T06:43:29;14.76;88.07
64198;SHT31;50512;53.666;9.700;2023-09-19T06:45:56;14.79;87.48
64198;SHT31;50512;53.666;9.700;2023-09-19T06:48:22;14.81;87.96
64198;SHT31;50512;53.666;9.700;2023-09-19T06:50:50;14.80;87.60
64198;SHT31;50512;53.666;9.700;2023-09-19T06:53:18;14.80;87.69
64198;SHT31;50512;53.666;9.700;2023-09-19T06:55:44;14.80;87.66
64198;SHT31;50512;53.666;9.700;2023-09-19T06:58:11;14.81;88.16
64198;SHT31;50512;53.666;9.700;2023-09-19T07:00:37;14.81;87.59
64198;SHT31;50512;53.666;9.700;2023-09-19T07:03:05;15.50;85.61
64198;SHT31;50512;53.666;9.700;2023-09-19T07:05:34;16.28;84.22
64198;SHT31;50512;53.666;9.700;2023-09-19T07:08:03;15.93;85.17
64198;SHT31;50512;53.666;9.700;2023-09-19T07:10:30;15.42;85.90
64198;SHT31;50512;53.666;9.700;2023-09-19T07:12:57;15.10;87.30
64198;SHT31;50512;53.666;9.700;2023-09-19T07:15:24;15.08;87.84
64198;SHT31;50512;53.666;9.700;2023-09-19T07:17:51;15.07;87.58
64198;SHT31;50512;53.666;9.700;2023-09-19T07:20:18;15.14;87.96
64198;SHT31;50512;53.666;9.700;2023-09-19T07:22:45;15.17;87.88
64198;SHT31;50512;53.666;9.700;2023-09-19T07:25:12;15.10;87.63
64198;SHT31;50512;53.666;9.700;2023-09-19T07:27:41;15.11;88.21
64198;SHT31;50512;53.666;9.700;2023-09-19T07:30:08;15.07;87.50
64198;SHT31;50512;53.666;9.700;2023-09-19T07:32:35;15.14;88.68
64198;SHT31;50512;53.666;9.700;2023-09-19T07:35:03;15.12;88.10
64198;SHT31;50512;53.666;9.700;2023-09-19T07:37:30;15.08;88.52
64198;SHT31;50512;53.666;9.700;2023-09-19T07:39:58;15.08;88.01
64198;SHT31;50512;53.666;9.700;2023-09-19T07:42:25;15.07;88.71
64198;SHT31;50512;53.666;9.700;2023-09-19T07:44:53;15.11;89.14
64198;SHT31;50512;53.666;9.700;2023-09-19T07:47:19;15.10;88.27
64198;SHT31;50512;53.666;9.700;2023-09-19T07:49:46;15.11;87.10
64198;SHT31;50512;53.666;9.700;2023-09-19T07:52:13;15.11;87.45
64198;SHT31;50512;53.666;9.700;2023-09-19T07:54:40;15.11;87.65
64198;SHT31;50512;53.666;9.700;2023-09-19T07:57:09;15.10;87.05
64198;SHT31;50512;53.666;9.700;2023-09-19T07:59:36;15.14;87.29
64198;SHT31;50512;53.666;9.700;2023-09-19T08:02:04;15.20;87.42
64198;SHT31;50512;53.666;9.700;2023-09-19T08:04:33;15.17;87.12
64198;SHT31;50512;53.666;9.700;2023-09-19T08:07:00;15.28;87.27
64198;SHT31;50512;53.666;9.700;2023-09-19T08:09:29;15.36;86.71
64198;SHT31;50512;53.666;9.700;2023-09-19T08:11:58;15.42;86.74
64198;SHT31;50512;53.666;9.700;2023-09-19T08:14:29;15.38;86.64
64198;SHT31;50512;53.666;9.700;2023-09-19T08:16:56;15.48;86.81
64198;SHT31;50512;53.666;9.700;2023-09-19T08:19:24;15.48;86.41
64198;SHT31;50512;53.666;9.700;2023-09-19T08:21:54;15.48;86.96
64198;SHT31;50512;53.666;9.700;2023-09-19T08:24:21;15.42;87.13
64198;SHT31;50512;53.666;9.700;2023-09-19T08:26:48;15.45;87.24
64198;SHT31;50512;53.666;9.700;2023-09-19T08:29:16;15.45;86.74
64198;SHT31;50512;53.666;9.700;2023-09-19T08:31:43;15.38;86.97
64198;SHT31;50512;53.666;9.700;2023-09-19T08:34:09;15.36;86.55
64198;SHT31;50512;53.666;9.700;2023-09-19T08:36:37;15.39;86.77
64198;SHT31;50512;53.666;9.700;2023-09-19T08:39:04;15.40;87.10
64198;SHT31;50512;53.666;9.700;2023-09-19T08:41:31;15.46;87.25
64198;SHT31;50512;53.666;9.700;2023-09-19T08:43:58;15.43;87.59
64198;SHT31;50512;53.666;9.700;2023-09-19T08:46:30;15.42;87.36
64198;SHT31;50512;53.666;9.700;2023-09-19T08:49:03;15.42;87.03
64198;SHT31;50512;53.666;9.700;2023-09-19T08:51:34;15.48;86.69
64198;SHT31;50512;53.666;9.700;2023-09-19T08:54:07;15.50;87.14
64198;SHT31;50512;53.666;9.700;2023-09-19T08:56:35;15.55;87.32
64198;SHT31;50512;53.666;9.700;2023-09-19T08:59:05;15.58;86.96
64198;SHT31;50512;53.666;9.700;2023-09-19T09:01:33;15.66;86.93
64198;SHT31;50512;53.666;9.700;2023-09-19T09:04:01;15.70;86.74
64198;SHT31;50512;53.666;9.700;2023-09-19T09:06:29;15.76;85.71
64198;SHT31;50512;53.666;9.700;2023-09-19T09:08:58;15.74;85.88
64198;SHT31;50512;53.666;9.700;2023-09-19T09:11:26;15.77;85.06
64198;SHT31;50512;53.666;9.700;2023-09-19T09:13:53;15.83;84.96
64198;SHT31;50512;53.666;9.700;2023-09-19T09:16:20;15.96;85.11
64198;SHT31;50512;53.666;9.700;2023-09-19T09:18:46;16.01;83.90
64198;SHT31;50512;53.666;9.700;2023-09-19T09:21:18;15.98;83.58
64198;SHT31;50512;53.666;9.700;2023-09-19T09:23:46;16.20;84.25
64198;SHT31;50512;53.666;9.700;2023-09-19T09:26:13;16.25;83.51
64198;SHT31;50512;53.666;9.700;2023-09-19T09:28:46;16.38;82.70
64198;SHT31;50512;53.666;9.700;2023-09-19T09:31:22;16.47;82.24
64198;SHT31;50512;53.666;9.700;2023-09-19T09:33:53;16.52;80.72
64198;SHT31;50512;53.666;9.700;2023-09-19T09:36:33;16.59;81.03
64198;SHT31;50512;53.666;9.700;2023-09-19T09:39:00;16.81;80.99
64198;SHT31;50512;53.666;9.700;2023-09-19T09:41:41;17.10;79.93
64198;SHT31;50512;53.666;9.700;2023-09-19T09:44:14;17.27;80.91
64198;SHT31;50512;53.666;9.700;2023-09-19T09:46:43;17.10;79.26
64198;SHT31;50512;53.666;9.700;2023-09-19T09:49:25;17.18;79.12
64198;SHT31;50512;53.666;9.700;2023-09-19T09:52:01;17.38;79.34
64198;SHT31;50512;53.666;9.700;2023-09-19T09:54:31;17.18;78.38
64198;SHT31;50512;53.666;9.700;2023-09-19T09:57:03;17.31;78.35
64198;SHT31;50512;53.666;9.700;2023-09-19T09:59:48;17.27;76.48
64198;SHT31;50512;53.666;9.700;2023-09-19T10:02:17;17.30;78.90
64198;SHT31;50512;53.666;9.700;2023-09-19T10:04:50;17.41;76.87
64198;SHT31;50512;53.666;9.700;2023-09-19T10:07:36;17.27;76.69
64198;SHT31;50512;53.666;9.700;2023-09-19T10:10:04;17.51;76.24
64198;SHT31;50512;53.666;9.700;2023-09-19T10:12:43;17.42;75.53
64198;SHT31;50512;53.666;9.700;2023-09-19T10:15:12;17.59;76.47
64198;SHT31;50512;53.666;9.700;2023-09-19T10:17:43;17.43;75.96
64198;SHT31;50512;53.666;9.700;2023-09-19T10:20:12;17.42;74.26
64198;SHT31;50512;53.666;9.700;2023-09-19T10:22:53;17.58;75.56
64198;SHT31;50512;53.666;9.700;2023-09-19T10:25:25;17.42;74.01
64198;SHT31;50512;53.666;9.700;2023-09-19T10:27:54;17.42;75.31
64198;SHT31;50512;53.666;9.700;2023-09-19T10:30:24;17.49;74.45
64198;SHT31;50512;53.666;9.700;2023-09-19T10:32:57;17.63;75.02
64198;SHT31;50512;53.666;9.700;2023-09-19T10:35:25;17.80;75.18
64198;SHT31;50512;53.666;9.700;2023-09-19T10:37:54;17.61;74.55
64198;SHT31;50512;53.666;9.700;2023-09-19T10:40:21;17.72;76.15
64198;SHT31;50512;53.666;9.700;2023-09-19T10:42:52;17.59;74.31
64198;SHT31;50512;53.666;9.700;2023-09-19T10:45:20;17.68;74.34
64198;SHT31;50512;53.666;9.700;2023-09-19T10:47:53;17.90;75.11
64198;SHT31;50512;53.666;9.700;2023-09-19T10:50:21;18.03;75.58
64198;SHT31;50512;53.666;9.700;2023-09-19T10:52:49;18.10;75.66
64198;SHT31;50512;53.666;9.700;2023-09-19T10:55:24;17.93;74.29
64198;SHT31;50512;53.666;9.700;2023-09-19T10:57:53;17.93;75.70
64198;SHT31;50512;53.666;9.700;2023-09-19T11:01:00;17.76;75.19
64198;SHT31;50512;53.666;9.700;2023-09-19T11:03:38;17.56;75.00
64198;SHT31;50512;53.666;9.700;2023-09-19T11:06:10;17.73;75.29
64198;SHT31;50512;53.666;9.700;2023-09-19T11:08:54;17.90;75.38
64198;SHT31;50512;53.666;9.700;2023-09-19T11:11:40;18.25;75.42
64198;SHT31;50512;53.666;9.700;2023-09-19T11:20:24;18.01;73.22
64198;SHT31;50512;53.666;9.700;2023-09-19T11:23:18;17.72;74.59
64198;SHT31;50512;53.666;9.700;2023-09-19T11:25:48;17.55;74.84
64198;SHT31;50512;53.666;9.700;2023-09-19T11:28:36;17.58;74.96
64198;SHT31;50512;53.666;9.700;2023-09-19T11:34:38;18.11;75.52
64198;SHT31;50512;53.666;9.700;2023-09-19T11:40:28;17.85;74.84
64198;SHT31;50512;53.666;9.700;2023-09-19T11:42:56;17.80;73.78
64198;SHT31;50512;53.666;9.700;2023-09-19T11:48:31;18.04;73.90
64198;SHT31;50512;53.666;9.700;2023-09-19T11:50:58;17.98;73.50
64198;SHT31;50512;53.666;9.700;2023-09-19T11:53:31;17.87;74.65
64198;SHT31;50512;53.666;9.700;2023-09-19T11:56:04;17.93;73.83
64198;SHT31;50512;53.666;9.700;2023-09-19T11:58:32;18.23;72.35
64198;SHT31;50512;53.666;9.700;2023-09-19T12:01:00;18.28;73.47
64198;SHT31;50512;53.666;9.700;2023-09-19T12:03:32;18.23;73.91
64198;SHT31;50512;53.666;9.700;2023-09-19T12:06:00;18.51;73.11
64198;SHT31;50512;53.666;9.700;2023-09-19T12:08:28;18.44;71.89
64198;SHT31;50512;53.666;9.700;2023-09-19T12:10:56;18.32;69.84
64198;SHT31;50512;53.666;9.700;2023-09-19T12:13:23;18.52;71.31
64198;SHT31;50512;53.666;9.700;2023-09-19T12:15:50;18.42;69.91
64198;SHT31;50512;53.666;9.700;2023-09-19T12:18:26;18.52;70.27
64198;SHT31;50512;53.666;9.700;2023-09-19T12:20:53;18.49;67.92
64198;SHT31;50512;53.666;9.700;2023-09-19T12:23:20;18.48;69.31
64198;SHT31;50512;53.666;9.700;2023-09-19T12:25:47;18.42;68.79
64198;SHT31;50512;53.666;9.700;2023-09-19T12:28:19;18.72;69.20
64198;SHT31;50512;53.666;9.700;2023-09-19T12:30:47;18.92;68.49
64198;SHT31;50512;53.666;9.700;2023-09-19T12:33:16;19.21;67.87
64198;SHT31;50512;53.666;9.700;2023-09-19T12:35:44;19.08;67.84
64198;SHT31;50512;53.666;9.700;2023-09-19T12:38:10;19.35;69.57
64198;SHT31;50512;53.666;9.700;2023-09-19T12:40:37;19.30;68.54
64198;SHT31;50512;53.666;9.700;2023-09-19T12:43:08;19.63;67.43
64198;SHT31;50512;53.666;9.700;2023-09-19T12:45:42;19.75;66.88
64198;SHT31;50512;53.666;9.700;2023-09-19T12:48:22;19.54;66.10
64198;SHT31;50512;53.666;9.700;2023-09-19T12:51:02;19.52;66.94
64198;SHT31;50512;53.666;9.700;2023-09-19T12:53:31;19.14;65.82
64198;SHT31;50512;53.666;9.700;2023-09-19T12:55:59;19.18;66.70
64198;SHT31;50512;53.666;9.700;2023-09-19T12:58:26;19.34;66.15
64198;SHT31;50512;53.666;9.700;2023-09-19T13:00:54;19.27;66.20
64198;SHT31;50512;53.666;9.700;2023-09-19T13:03:25;19.27;64.60
64198;SHT31;50512;53.666;9.700;2023-09-19T13:05:54;19.42;67.38
64198;SHT31;50512;53.666;9.700;2023-09-19T13:08:24;19.14;66.05
64198;SHT31;50512;53.666;9.700;2023-09-19T13:11:04;19.45;67.81
64198;SHT31;50512;53.666;9.700;2023-09-19T13:13:35;19.17;66.96
64198;SHT31;50512;53.666;9.700;2023-09-19T13:16:04;19.02;66.83
64198;SHT31;50512;53.666;9.700;2023-09-19T13:18:41;19.02;67.24
64198;SHT31;50512;53.666;9.700;2023-09-19T13:21:10;18.96;66.72
64198;SHT31;50512;53.666;9.700;2023-09-19T13:23:40;18.96;67.78
64198;SHT31;50512;53.666;9.700;2023-09-19T13:26:07;18.79;67.01
64198;SHT31;50512;53.666;9.700;2023-09-19T13:28:33;18.76;67.55
64198;SHT31;50512;53.666;9.700;2023-09-19T13:31:01;18.77;66.56
64198;SHT31;50512;53.666;9.700;2023-09-19T13:33:29;18.82;66.38
64198;SHT31;50512;53.666;9.700;2023-09-19T13:35:55;18.77;66.90
64198;SHT31;50512;53.666;9.700;2023-09-19T13:38:22;18.83;66.66
64198;SHT31;50512;53.666;9.700;2023-09-19T13:40:48;18.99;67.97
64198;SHT31;50512;53.666;9.700;2023-09-19T13:43:17;19.10;67.84
64198;SHT31;50512;53.666;9.700;2023-09-19T13:45:44;19.07;66.05
64198;SHT31;50512;53.666;9.700;2023-09-19T13:48:10;19.08;65.52
64198;SHT31;50512;53.666;9.700;2023-09-19T13:50:38;19.07;65.10
64198;SHT31;50512;53.666;9.700;2023-09-19T13:53:08;19.30;67.26
64198;SHT31;50512;53.666;9.700;2023-09-19T13:55:34;19.44;65.91
64198;SHT31;50512;53.666;9.700;2023-09-19T13:58:03;19.30;65.91
64198;SHT31;50512;53.666;9.700;2023-09-19T14:00:32;19.24;65.43
64198;SHT31;50512;53.666;9.700;2023-09-19T14:02:59;19.23;65.65
64198;SHT31;50512;53.666;9.700;2023-09-19T14:05:26;19.18;65.16
64198;SHT31;50512;53.666;9.700;2023-09-19T14:07:54;19.20;65.05
64198;SHT31;50512;53.666;9.700;2023-09-19T14:10:22;19.14;64.62
64198;SHT31;50512;53.666;9.700;2023-09-19T14:12:49;19.27;65.51
64198;SHT31;50512;53.666;9.700;2023-09-19T14:15:15;19.51;66.29
64198;SHT31;50512;53.666;9.700;2023-09-19T14:17:42;19.35;65.94
64198;SHT31;50512;53.666;9.700;2023-09-19T14:20:10;19.27;65.45
64198;SHT31;50512;53.666;9.700;2023-09-19T14:22:37;19.14;65.23
64198;SHT31;50512;53.666;9.700;2023-09-19T14:25:06;19.07;66.44
64198;SHT31;50512;53.666;9.700;2023-09-19T14:27:32;19.08;66.54
64198;SHT31;50512;53.666;9.700;2023-09-19T14:29:59;18.92;67.12
64198;SHT31;50512;53.666;9.700;2023-09-19T14:32:25;18.85;66.99
64198;SHT31;50512;53.666;9.700;2023-09-19T14:34:52;18.79;67.36
64198;SHT31;50512;53.666;9.700;2023-09-19T14:37:18;18.76;67.70
64198;SHT31;50512;53.666;9.700;2023-09-19T14:39:46;18.80;67.80
64198;SHT31;50512;53.666;9.700;2023-09-19T14:42:14;18.80;68.26
64198;SHT31;50512;53.666;9.700;2023-09-19T14:44:42;18.85;69.06
64198;SHT31;50512;53.666;9.700;2023-09-19T14:47:09;18.89;69.25
64198;SHT31;50512;53.666;9.700;2023-09-19T14:49:38;18.83;69.74
64198;SHT31;50512;53.666;9.700;2023-09-19T14:52:07;18.77;69.02
64198;SHT31;50512;53.666;9.700;2023-09-19T14:54:34;18.80;69.18
64198;SHT31;50512;53.666;9.700;2023-09-19T14:57:00;18.83;69.86
64198;SHT31;50512;53.666;9.700;2023-09-19T14:59:31;18.82;69.34
64198;SHT31;50512;53.666;9.700;2023-09-19T15:01:58;18.76;70.32
64198;SHT31;50512;53.666;9.700;2023-09-19T15:04:25;18.63;71.00
64198;SHT31;50512;53.666;9.700;2023-09-19T15:06:53;18.66;70.55
64198;SHT31;50512;53.666;9.700;2023-09-19T15:09:20;18.62;71.29
64198;SHT31;50512;53.666;9.700;2023-09-19T15:11:47;18.63;70.75
64198;SHT31;50512;53.666;9.700;2023-09-19T15:14:13;18.61;71.16
64198;SHT31;50512;53.666;9.700;2023-09-19T15:16:41;18.53;72.23
64198;SHT31;50512;53.666;9.700;2023-09-19T15:19:09;18.53;71.77
64198;SHT31;50512;53.666;9.700;2023-09-19T15:21:35;18.44;73.77
64198;SHT31;50512;53.666;9.700;2023-09-19T15:24:02;18.21;76.06
64198;SHT31;50512;53.666;9.700;2023-09-19T15:26:30;18.10;76.87
64198;SHT31;50512;53.666;9.700;2023-09-19T15:28:56;17.98;77.75
64198;SHT31;50512;53.666;9.700;2023-09-19T15:31:23;18.03;75.88
64198;SHT31;50512;53.666;9.700;2023-09-19T15:33:52;18.00;77.10
64198;SHT31;50512;53.666;9.700;2023-09-19T15:36:19;18.03;77.10
64198;SHT31;50512;53.666;9.700;2023-09-19T15:38:59;18.08;76.15
64198;SHT31;50512;53.666;9.700;2023-09-19T15:41:26;18.06;75.13
64198;SHT31;50512;53.666;9.700;2023-09-19T15:43:53;18.07;75.19
64198;SHT31;50512;53.666;9.700;2023-09-19T15:46:20;18.14;74.81
64198;SHT31;50512;53.666;9.700;2023-09-19T15:48:47;18.15;75.17
64198;SHT31;50512;53.666;9.700;2023-09-19T15:51:15;18.10;74.96
64198;SHT31;50512;53.666;9.700;2023-09-19T15:53:45;18.10;74.53
64198;SHT31;50512;53.666;9.700;2023-09-19T15:56:13;18.23;73.46
64198;SHT31;50512;53.666;9.700;2023-09-19T15:58:40;18.25;73.34